Time;durP1;ratioP1;P1;durP2;ratioP2;P2;SDS_P1;SDS_P2;PMS_P1;PMS_P2;Temp;Humidity;BMP_temperature;BMP_pressure;BME280_temperature;BME280_humidity;BME280_pressure;Samples;Min_cycle;Max_cycle;Signal;HPM_P1;HPM_P2
2022/02/04 00:07:53;;;;;;;36.20;27.67;;;6.90;99.90;;;;;;5089592;28;20043;-86
2022/02/04 00:23:46;;;;;;;31.45;24.98;;;6.90;99.90;;;;;;5087962;28;20055;-85
2022/02/04 00:26:17;;;;;;;34.25;26.02;;;7.00;99.90;;;;;;5088638;28;20035;-84
2022/02/04 00:28:59;;;;;;;41.75;25.02;;;7.00;99.90;;;;;;5081529;28;20066;-85
2022/02/04 00:31:39;;;;;;;32.53;23.55;;;7.10;99.90;;;;;;5087174;28;20040;-85
2022/02/04 00:34:09;;;;;;;30.42;24.20;;;7.00;99.90;;;;;;5089840;28;20108;-84
2022/02/04 00:39:11;;;;;;;31.27;23.50;;;6.90;99.90;;;;;;5093628;28;20093;-85
2022/02/04 00:41:39;;;;;;;30.55;21.45;;;7.00;99.90;;;;;;5091904;28;20036;-85
2022/02/04 00:44:09;;;;;;;30.30;23.05;;;6.90;99.90;;;;;;5089882;28;20054;-85
2022/02/04 00:46:55;;;;;;;27.73;22.70;;;6.90;99.90;;;;;;5093883;28;20119;-85
2022/02/04 00:49:47;;;;;;;26.30;19.85;;;6.90;99.90;;;;;;5089241;28;20119;-85
2022/02/04 01:27:12;;;;;;;29.52;20.13;;;6.70;99.90;;;;;;5095664;28;20035;-84
2022/02/04 01:29:49;;;;;;;29.65;20.60;;;6.60;99.90;;;;;;5088106;28;20032;-85
2022/02/04 01:32:27;;;;;;;31.13;21.13;;;6.70;99.90;;;;;;5090629;28;20048;-84
2022/02/04 01:34:53;;;;;;;27.92;19.55;;;6.70;99.90;;;;;;5091938;28;20043;-85
2022/02/04 01:37:19;;;;;;;27.88;20.00;;;6.70;99.90;;;;;;5083701;28;20041;-86
2022/02/04 01:39:45;;;;;;;32.35;20.10;;;6.70;99.90;;;;;;5086856;28;20036;-85
2022/02/04 01:42:11;;;;;;;29.38;20.70;;;6.70;99.90;;;;;;5090598;28;20032;-85
2022/02/04 01:44:36;;;;;;;31.35;20.60;;;6.80;99.90;;;;;;5089804;28;20036;-84
2022/02/04 01:47:03;;;;;;;27.95;19.83;;;6.80;99.90;;;;;;5087229;28;20052;-84
2022/02/04 01:49:30;;;;;;;28.02;19.50;;;6.80;99.90;;;;;;5098477;28;20055;-84
2022/02/04 01:51:57;;;;;;;26.92;19.02;;;6.80;99.90;;;;;;5089883;28;20079;-84
2022/02/04 01:54:23;;;;;;;29.60;20.83;;;6.80;99.90;;;;;;5085930;28;20036;-85
2022/02/04 01:56:50;;;;;;;27.98;18.95;;;6.80;99.90;;;;;;5093948;28;20474;-84
2022/02/04 01:59:15;;;;;;;28.35;20.25;;;6.80;99.90;;;;;;5091642;28;20039;-85
2022/02/04 02:01:41;;;;;;;28.85;19.40;;;6.80;99.90;;;;;;5086998;28;20036;-84
2022/02/04 02:04:10;;;;;;;25.00;19.08;;;6.80;99.90;;;;;;5088371;28;20470;-85
2022/02/04 02:06:54;;;;;;;26.88;20.10;;;6.80;99.90;;;;;;5090522;28;20044;-85
2022/02/04 02:09:25;;;;;;;32.17;20.45;;;6.90;99.90;;;;;;5093586;28;20024;-84
2022/02/04 02:11:55;;;;;;;27.60;18.98;;;6.90;99.90;;;;;;5090055;28;20063;-84
2022/02/04 02:14:24;;;;;;;27.40;20.15;;;6.80;99.90;;;;;;5090648;28;20039;-84
2022/02/04 02:33:12;;;;;;;27.02;20.38;;;6.90;99.90;;;;;;5071800;28;20116;-84
2022/02/04 02:34:00;;;;;;;28.80;20.80;;;7.10;99.90;;;;;;5086357;28;20482;-85
2022/02/04 02:42:10;;;;;;;29.33;20.48;;;7.00;99.90;;;;;;5089656;28;20395;-84
2022/02/04 02:47:26;;;;;;;30.65;21.27;;;7.00;99.90;;;;;;5086155;28;20600;-84
2022/02/04 02:52:27;;;;;;;34.80;22.92;;;7.10;99.90;;;;;;5083352;28;20048;-84
2022/02/04 02:58:11;;;;;;;31.83;22.52;;;7.10;99.90;;;;;;5061977;28;20049;-84
2022/02/04 03:00:55;;;;;;;31.38;23.15;;;7.10;99.90;;;;;;5083022;28;20032;-85
2022/02/04 03:03:22;;;;;;;30.73;23.00;;;7.10;99.90;;;;;;5090836;28;20630;-85
2022/02/04 03:05:48;;;;;;;32.30;23.92;;;7.10;99.90;;;;;;5088506;28;20075;-84
2022/02/04 03:08:14;;;;;;;34.33;23.55;;;7.20;99.90;;;;;;5086826;28;20117;-85
2022/02/04 03:10:40;;;;;;;30.90;24.13;;;7.20;99.90;;;;;;5091394;28;20114;-84
2022/02/04 03:13:07;;;;;;;30.75;24.00;;;7.20;99.90;;;;;;5093436;28;20031;-85
2022/02/04 03:15:36;;;;;;;31.77;24.65;;;7.20;99.90;;;;;;5088096;28;20378;-85
2022/02/04 03:18:05;;;;;;;33.88;25.52;;;7.20;99.90;;;;;;5090290;28;20055;-84
2022/02/04 03:20:42;;;;;;;37.60;24.67;;;7.20;99.90;;;;;;5084406;28;20061;-84
2022/02/04 03:23:07;;;;;;;33.33;24.15;;;7.20;99.90;;;;;;5087148;28;20043;-84
2022/02/04 03:25:39;;;;;;;30.30;23.73;;;7.30;99.90;;;;;;5084777;28;20034;-84
2022/02/04 03:28:04;;;;;;;30.50;23.55;;;7.20;99.90;;;;;;5085635;28;20059;-83
2022/02/04 03:30:34;;;;;;;33.75;24.10;;;7.20;99.90;;;;;;5087436;28;20044;-86
2022/02/04 03:33:04;;;;;;;29.35;23.65;;;7.20;99.90;;;;;;5085991;28;20126;-85
2022/02/04 03:35:31;;;;;;;32.83;23.83;;;7.30;99.90;;;;;;5092122;28;20040;-85
2022/02/04 03:37:57;;;;;;;31.70;23.95;;;7.20;99.90;;;;;;5087562;28;20036;-85
2022/02/04 03:40:24;;;;;;;30.25;24.15;;;7.30;99.90;;;;;;5088291;28;20040;-85
2022/02/04 03:42:50;;;;;;;26.23;22.25;;;7.20;99.90;;;;;;5092761;28;20040;-85
2022/02/04 03:45:17;;;;;;;29.85;24.30;;;7.30;99.90;;;;;;5087701;28;20028;-85
2022/02/04 03:47:43;;;;;;;30.40;23.77;;;7.30;99.90;;;;;;5086188;28;20036;-85
2022/02/04 03:50:09;;;;;;;30.92;23.02;;;7.30;99.90;;;;;;5078893;28;20120;-84
2022/02/04 03:52:35;;;;;;;27.88;21.25;;;7.30;99.90;;;;;;5085371;28;20071;-85
2022/02/04 03:55:01;;;;;;;25.90;22.52;;;7.40;99.90;;;;;;5084950;28;20087;-85
2022/02/04 03:57:27;;;;;;;26.35;20.88;;;7.30;99.90;;;;;;5090100;28;20550;-85
2022/02/04 03:59:53;;;;;;;25.95;20.98;;;7.40;99.90;;;;;;5080300;28;20072;-86
2022/02/04 04:02:18;;;;;;;31.17;22.88;;;7.40;99.90;;;;;;5087790;28;20047;-85
2022/02/04 04:04:44;;;;;;;28.42;22.10;;;7.30;99.90;;;;;;5087649;28;20032;-85
2022/02/04 04:07:10;;;;;;;28.77;22.75;;;7.40;99.90;;;;;;5086404;28;20553;-84
2022/02/04 04:09:40;;;;;;;26.25;22.38;;;7.30;99.90;;;;;;5085939;28;20052;-85
2022/02/04 04:12:06;;;;;;;25.75;20.80;;;7.40;99.90;;;;;;5091302;28;20067;-85
2022/02/04 04:14:31;;;;;;;25.05;21.20;;;7.40;99.90;;;;;;5087564;28;20043;-85
2022/02/04 04:16:57;;;;;;;24.33;20.52;;;7.40;99.90;;;;;;5092176;28;20036;-86
2022/02/04 04:19:24;;;;;;;23.83;19.85;;;7.40;99.90;;;;;;5087372;28;20033;-85
2022/02/04 04:21:50;;;;;;;25.00;20.65;;;7.40;99.90;;;;;;5088615;28;20098;-85
2022/02/04 04:24:16;;;;;;;23.83;20.42;;;7.40;99.90;;;;;;5094862;28;20068;-85
2022/02/04 04:26:42;;;;;;;25.75;20.20;;;7.50;99.90;;;;;;5096028;28;20501;-84
2022/02/04 04:29:08;;;;;;;26.05;19.35;;;7.40;99.90;;;;;;5089245;28;20044;-85
2022/02/04 04:31:35;;;;;;;24.40;20.38;;;7.50;99.90;;;;;;5097674;28;20036;-84
2022/02/04 04:34:01;;;;;;;24.25;19.48;;;7.50;99.90;;;;;;5083751;28;20145;-85
2022/02/04 04:36:27;;;;;;;21.08;18.63;;;7.50;99.90;;;;;;5083366;28;20135;-85
2022/02/04 04:39:04;;;;;;;22.48;18.63;;;7.50;99.90;;;;;;5089724;28;20081;-84
2022/02/04 04:44:33;;;;;;;25.00;20.00;;;7.50;99.90;;;;;;5089867;28;20116;-85
2022/02/04 05:30:25;;;;;;;21.65;15.57;;;7.60;99.90;;;;;;5086321;28;20087;-85
2022/02/04 05:32:50;;;;;;;18.48;15.88;;;7.60;99.90;;;;;;5083045;28;20052;-85
2022/02/04 05:35:18;;;;;;;18.23;16.23;;;7.60;99.90;;;;;;5088130;28;20043;-85
2022/02/04 05:37:47;;;;;;;17.20;15.25;;;7.60;99.90;;;;;;5088014;28;20681;-85
2022/02/04 05:40:17;;;;;;;19.27;15.60;;;7.60;99.90;;;;;;5090491;28;20111;-85
2022/02/04 05:42:50;;;;;;;18.63;15.82;;;7.60;99.90;;;;;;5089884;28;20036;-85
2022/02/04 05:45:19;;;;;;;17.80;14.68;;;7.70;99.90;;;;;;5090561;28;20031;-84
2022/02/04 05:47:49;;;;;;;21.17;14.80;;;7.70;99.90;;;;;;5085502;28;20499;-86
2022/02/04 05:50:26;;;;;;;17.83;14.63;;;7.60;99.90;;;;;;5081039;28;20059;-84
2022/02/04 05:53:01;;;;;;;16.10;14.07;;;7.60;99.90;;;;;;5089010;28;20493;-85
2022/02/04 06:00:59;;;;;;;17.08;13.30;;;7.70;99.90;;;;;;5086930;28;20040;-85
2022/02/04 06:03:47;;;;;;;18.05;14.73;;;7.70;99.90;;;;;;5087488;28;20047;-86
2022/02/04 06:14:46;;;;;;;17.23;14.32;;;7.70;99.90;;;;;;5087935;28;20036;-85
2022/02/04 06:22:40;;;;;;;17.52;13.43;;;7.70;99.90;;;;;;5091601;28;20100;-86
2022/02/04 06:25:08;;;;;;;15.27;12.98;;;7.70;99.90;;;;;;5085032;28;20119;-86
2022/02/04 06:27:35;;;;;;;20.10;13.40;;;7.70;99.90;;;;;;5096889;28;20035;-85
2022/02/04 06:30:03;;;;;;;16.52;12.50;;;7.70;99.90;;;;;;5086788;28;20093;-85
2022/02/04 06:32:29;;;;;;;18.00;12.55;;;7.70;99.90;;;;;;5086294;28;21540;-85
2022/02/04 06:34:59;;;;;;;16.20;12.35;;;7.70;99.90;;;;;;5091686;28;20051;-85
2022/02/04 06:37:25;;;;;;;19.48;12.65;;;7.70;99.90;;;;;;5085549;28;20044;-85
2022/02/04 06:39:50;;;;;;;18.45;12.80;;;7.70;99.90;;;;;;5087249;28;20060;-84
2022/02/04 06:42:25;;;;;;;14.90;12.50;;;7.70;99.90;;;;;;5088549;28;20109;-85
2022/02/04 06:44:51;;;;;;;16.92;12.05;;;7.80;99.90;;;;;;5093177;28;20032;-86
2022/02/04 06:47:17;;;;;;;17.15;11.57;;;7.70;99.90;;;;;;5089823;28;20051;-85
2022/02/04 06:49:43;;;;;;;22.30;13.25;;;7.70;99.90;;;;;;5097110;28;20032;-85
2022/02/04 06:52:09;;;;;;;17.58;12.50;;;7.80;99.90;;;;;;5092768;28;20067;-85
2022/02/04 06:54:35;;;;;;;15.27;10.98;;;7.80;99.90;;;;;;5072468;28;20049;-85
2022/02/04 06:57:01;;;;;;;17.02;12.02;;;7.80;99.90;;;;;;5085255;28;20039;-86
2022/02/04 06:59:26;;;;;;;14.38;11.50;;;7.70;99.90;;;;;;5084891;28;20032;-84
2022/02/04 07:01:52;;;;;;;15.65;12.15;;;7.70;99.90;;;;;;5089732;28;20078;-85
2022/02/04 07:04:18;;;;;;;13.57;11.05;;;7.70;99.90;;;;;;5082432;28;20050;-85
2022/02/04 07:06:52;;;;;;;15.80;10.70;;;7.70;99.90;;;;;;5086038;28;20090;-84
2022/02/04 07:19:45;;;;;;;15.07;10.27;;;7.80;99.90;;;;;;5090962;28;20036;-84
2022/02/04 07:22:38;;;;;;;15.00;10.25;;;7.80;99.90;;;;;;5085516;28;20036;-84
2022/02/04 07:25:06;;;;;;;14.73;10.23;;;7.80;99.90;;;;;;5081929;28;20044;-82
2022/02/04 07:27:34;;;;;;;10.90;9.02;;;7.80;99.90;;;;;;5084804;28;20040;-82
2022/02/04 07:30:01;;;;;;;11.02;9.10;;;7.80;99.90;;;;;;5086355;28;20641;-82
2022/02/04 07:32:42;;;;;;;9.40;8.45;;;7.70;99.90;;;;;;5081048;28;20068;-81
2022/02/04 07:43:08;;;;;;;10.35;8.73;;;7.80;99.90;;;;;;5083382;28;20440;-80
2022/02/04 07:45:34;;;;;;;11.40;8.30;;;7.80;99.90;;;;;;5081053;28;20032;-81
2022/02/04 07:48:01;;;;;;;9.95;8.25;;;7.80;99.90;;;;;;5066450;28;20032;-81
2022/02/04 07:50:27;;;;;;;14.60;8.70;;;7.80;99.90;;;;;;5084615;28;20041;-81
2022/02/04 07:52:54;;;;;;;8.60;7.75;;;7.80;99.90;;;;;;5090066;28;20051;-80
2022/02/04 07:55:21;;;;;;;12.77;8.20;;;7.80;99.90;;;;;;5089008;28;20380;-81
2022/02/04 07:57:48;;;;;;;10.13;7.78;;;7.80;99.90;;;;;;5089477;28;20036;-80
2022/02/04 08:00:16;;;;;;;10.05;7.20;;;7.80;99.90;;;;;;5091295;28;20039;-80
2022/02/04 08:02:47;;;;;;;11.90;7.25;;;7.80;99.90;;;;;;5090044;28;20111;-80
2022/02/04 08:05:17;;;;;;;12.30;6.82;;;7.80;99.90;;;;;;5088264;28;20047;-80
2022/02/04 08:08:03;;;;;;;7.90;6.57;;;7.90;99.90;;;;;;5085914;28;20041;-80
2022/02/04 08:15:53;;;;;;;7.80;6.10;;;7.90;99.90;;;;;;5089494;28;20134;-81
2022/02/04 08:18:33;;;;;;;7.13;5.70;;;7.90;99.90;;;;;;5088253;28;20040;-81
2022/02/04 08:34:37;;;;;;;7.43;5.88;;;8.00;99.90;;;;;;5078865;28;20071;-80
2022/02/04 08:51:08;;;;;;;7.63;6.95;;;8.10;99.90;;;;;;5083878;28;20465;-80
2022/02/04 08:56:21;;;;;;;7.88;6.10;;;8.20;99.90;;;;;;5087246;28;20036;-81
2022/02/04 08:58:56;;;;;;;8.40;7.13;;;8.20;99.90;;;;;;5086340;28;20115;-80
2022/02/04 09:01:31;;;;;;;8.88;5.82;;;8.20;99.90;;;;;;5086466;28;20044;-81
2022/02/04 09:04:07;;;;;;;8.60;6.60;;;8.20;99.90;;;;;;5085960;28;20028;-80
2022/02/04 09:06:39;;;;;;;10.88;6.38;;;8.20;99.90;;;;;;5087553;28;20033;-80
2022/02/04 09:09:11;;;;;;;7.85;6.15;;;8.10;99.90;;;;;;5087909;28;20405;-80
2022/02/04 09:19:22;;;;;;;8.93;6.10;;;8.30;99.90;;;;;;5084791;28;20124;-81
2022/02/04 09:21:53;;;;;;;9.77;5.85;;;8.20;99.90;;;;;;5089744;28;20081;-80
2022/02/04 09:24:20;;;;;;;7.55;6.85;;;8.30;99.90;;;;;;5083179;28;20096;-81
2022/02/04 09:26:46;;;;;;;10.05;6.95;;;8.30;99.90;;;;;;5082695;28;20041;-81
2022/02/04 09:29:12;;;;;;;7.63;6.25;;;8.40;99.90;;;;;;5081646;28;20040;-81
2022/02/04 09:31:39;;;;;;;7.45;6.70;;;8.40;99.90;;;;;;5085409;28;20108;-81
2022/02/04 09:34:06;;;;;;;7.20;6.25;;;8.40;99.90;;;;;;5084598;28;20986;-81
2022/02/04 09:36:32;;;;;;;10.30;6.75;;;8.40;99.90;;;;;;5085612;28;20051;-80
2022/02/04 09:38:59;;;;;;;6.80;5.95;;;8.40;99.90;;;;;;5082687;28;20035;-80
2022/02/04 09:41:25;;;;;;;9.50;7.03;;;8.40;99.90;;;;;;5085933;28;20040;-81
2022/02/04 09:43:52;;;;;;;9.18;7.40;;;8.40;99.90;;;;;;5081735;28;20040;-81
2022/02/04 09:46:19;;;;;;;7.75;6.85;;;8.50;99.90;;;;;;5082455;28;20035;-81
2022/02/04 09:48:49;;;;;;;9.32;7.22;;;8.50;99.90;;;;;;5081277;28;20466;-81
2022/02/04 09:51:19;;;;;;;11.30;7.40;;;8.60;99.90;;;;;;5086008;28;20040;-81
2022/02/04 10:07:49;;;;;;;6.65;6.13;;;8.70;99.90;;;;;;5082727;28;20040;-80
2022/02/04 10:13:39;;;;;;;7.90;5.93;;;8.80;99.90;;;;;;5063279;28;20040;-81
2022/02/04 10:16:36;;;;;;;7.25;6.40;;;8.90;99.90;;;;;;5083730;28;20048;-81
2022/02/04 10:19:23;;;;;;;6.32;5.72;;;9.00;99.90;;;;;;5077985;28;20047;-81
2022/02/04 10:21:58;;;;;;;6.50;5.70;;;9.00;99.90;;;;;;5084764;28;20025;-81
2022/02/04 10:24:26;;;;;;;6.97;6.30;;;9.10;99.90;;;;;;5086910;28;20036;-81
2022/02/04 10:27:17;;;;;;;6.60;6.00;;;9.10;99.90;;;;;;5081638;28;20097;-81
2022/02/04 10:29:52;;;;;;;7.57;6.57;;;9.10;99.90;;;;;;5085097;28;20093;-81
2022/02/04 10:32:23;;;;;;;7.28;6.57;;;9.10;99.90;;;;;;5080340;28;20036;-81
2022/02/04 10:35:16;;;;;;;7.70;6.13;;;9.20;99.90;;;;;;5080137;28;20079;-82
2022/02/04 10:40:51;;;;;;;7.97;6.22;;;9.20;99.90;;;;;;5081306;28;20474;-81
2022/02/04 10:49:06;;;;;;;7.63;6.05;;;9.30;99.90;;;;;;5084850;28;20078;-80
2022/02/04 10:51:49;;;;;;;6.05;5.40;;;9.30;99.90;;;;;;5081055;28;20556;-82
2022/02/04 11:02:41;;;;;;;5.80;5.20;;;9.30;99.90;;;;;;5083701;28;20047;-80
2022/02/04 11:05:27;;;;;;;5.55;5.05;;;9.30;99.90;;;;;;5084749;28;20104;-80
2022/02/04 11:31:03;;;;;;;6.40;4.18;;;9.40;99.90;;;;;;5082471;28;20118;-80
2022/02/04 11:36:06;;;;;;;4.07;2.88;;;9.60;99.90;;;;;;5050949;28;20056;-80
2022/02/04 11:47:59;;;;;;;6.65;2.35;;;10.10;99.90;;;;;;5079016;28;20036;-80
2022/02/04 11:53:34;;;;;;;2.67;2.20;;;10.00;99.90;;;;;;5083495;28;20040;-81
2022/02/04 11:56:00;;;;;;;4.30;2.60;;;9.90;99.90;;;;;;5085203;28;20559;-80
2022/02/04 11:58:26;;;;;;;2.85;1.98;;;9.90;99.90;;;;;;5080057;28;20052;-80
2022/02/04 12:01:04;;;;;;;6.07;2.25;;;9.80;99.90;;;;;;5081401;28;20109;-80
2022/02/04 12:03:39;;;;;;;1.83;1.73;;;9.80;99.90;;;;;;5080699;28;20482;-80
2022/02/04 12:06:05;;;;;;;4.68;2.50;;;9.80;99.90;;;;;;5088101;28;20075;-80
2022/02/04 12:08:31;;;;;;;3.30;2.17;;;9.80;99.90;;;;;;5081876;28;20035;-80
2022/02/04 12:11:00;;;;;;;2.65;2.03;;;9.90;99.90;;;;;;5079532;28;20040;-81
2022/02/04 12:13:27;;;;;;;3.92;2.08;;;9.90;99.90;;;;;;5083775;28;20036;-80
2022/02/04 12:16:05;;;;;;;3.38;1.83;;;9.90;99.90;;;;;;5080397;28;20051;-80
2022/02/04 12:18:39;;;;;;;3.30;1.90;;;10.00;99.90;;;;;;5078610;28;20462;-79
2022/02/04 12:21:05;;;;;;;3.80;2.00;;;9.80;99.90;;;;;;5079945;28;20044;-79
2022/02/04 12:23:41;;;;;;;2.65;2.00;;;9.80;99.90;;;;;;5081248;28;20696;-79
2022/02/04 12:26:09;;;;;;;1.92;1.70;;;9.70;99.90;;;;;;5081498;28;20082;-79
2022/02/04 12:28:55;;;;;;;3.55;1.77;;;9.70;99.90;;;;;;5077799;28;20041;-79
2022/02/04 12:31:30;;;;;;;4.60;1.60;;;9.60;99.90;;;;;;5081778;28;20105;-79
2022/02/04 12:34:05;;;;;;;4.70;1.95;;;9.60;99.90;;;;;;5079756;28;20043;-79
2022/02/04 12:36:32;;;;;;;4.45;1.60;;;9.80;99.90;;;;;;5079836;28;20044;-79
2022/02/04 12:39:04;;;;;;;5.90;1.63;;;9.60;99.90;;;;;;5081124;28;20127;-79
2022/02/04 12:41:35;;;;;;;2.25;1.30;;;9.60;99.90;;;;;;5079901;28;20037;-79
2022/02/04 12:44:04;;;;;;;3.95;1.45;;;9.60;99.90;;;;;;5084327;28;20047;-79
2022/02/04 12:46:31;;;;;;;5.53;1.70;;;9.70;99.90;;;;;;5085740;28;20041;-79
2022/02/04 12:49:04;;;;;;;4.82;1.73;;;9.60;99.90;;;;;;5083230;28;20043;-79
2022/02/04 12:51:43;;;;;;;6.07;1.55;;;9.60;99.90;;;;;;5082471;28;20036;-80
2022/02/04 12:54:10;;;;;;;4.68;1.45;;;9.60;99.90;;;;;;5099964;28;20391;-79
2022/02/04 12:56:40;;;;;;;3.95;1.17;;;9.50;99.90;;;;;;5082804;28;20482;-80
2022/02/04 13:07:45;;;;;;;6.57;1.63;;;9.30;99.90;;;;;;5080836;28;20746;-79
2022/02/04 13:10:28;;;;;;;4.72;2.00;;;9.20;99.90;;;;;;5089562;28;20119;-79
2022/02/04 13:13:13;;;;;;;3.22;1.65;;;9.10;99.90;;;;;;5082284;28;20044;-79
2022/02/04 13:15:41;;;;;;;4.97;1.93;;;8.90;99.90;;;;;;5082162;28;20085;-79
2022/02/04 13:18:12;;;;;;;3.97;3.03;;;8.80;99.90;;;;;;5078998;28;20127;-77
2022/02/04 13:20:41;;;;;;;6.30;2.80;;;8.70;99.90;;;;;;5081523;28;20048;-78
2022/02/04 13:23:11;;;;;;;3.90;2.40;;;8.60;99.90;;;;;;5078533;28;20040;-79
2022/02/04 13:25:43;;;;;;;5.10;3.13;;;8.50;99.90;;;;;;5080899;28;20086;-79
2022/02/04 13:28:18;;;;;;;5.97;4.00;;;8.40;99.90;;;;;;5083904;28;20051;-78
2022/02/04 13:30:59;;;;;;;11.50;5.33;;;8.40;99.90;;;;;;5083870;28;20446;-78
2022/02/04 13:33:30;;;;;;;4.07;3.40;;;8.40;99.90;;;;;;5072931;28;20040;-78
2022/02/04 13:36:11;;;;;;;4.30;4.00;;;8.30;99.90;;;;;;5083648;28;20085;-78
2022/02/04 13:41:21;;;;;;;6.47;3.97;;;8.20;99.90;;;;;;5080572;28;20059;-78
2022/02/04 13:44:16;;;;;;;4.65;4.25;;;8.20;99.90;;;;;;5077307;28;20040;-78
2022/02/04 13:46:46;;;;;;;9.98;4.10;;;8.20;99.90;;;;;;5077667;28;20038;-78
2022/02/04 13:55:04;;;;;;;2.42;2.10;;;8.10;99.90;;;;;;5077122;28;20122;-76
2022/02/04 13:57:22;;;;;;;1.90;0.10;;;8.00;99.90;;;;;;5075213;28;20072;-77
2022/02/04 14:03:16;;;;;;;1.65;0.10;;;7.40;99.90;;;;;;5064044;28;20724;-79
2022/02/04 14:05:51;;;;;;;1.35;0.13;;;7.10;99.90;;;;;;5077418;28;20052;-79
2022/02/04 14:08:27;;;;;;;0.75;0.10;;;6.80;99.90;;;;;;5082886;28;20039;-80
2022/02/04 14:10:57;;;;;;;1.27;0.25;;;6.50;99.90;;;;;;5080806;28;20413;-80
2022/02/04 14:13:24;;;;;;;2.05;0.00;;;6.30;99.90;;;;;;5082514;28;20412;-80
2022/02/04 14:16:06;;;;;;;1.10;0.08;;;6.10;99.90;;;;;;5082518;28;20050;-80
2022/02/04 14:18:36;;;;;;;2.25;0.08;;;6.00;99.90;;;;;;5081775;28;20083;-80
2022/02/04 14:21:03;;;;;;;0.10;0.00;;;5.80;99.90;;;;;;5078122;28;20470;-80
2022/02/04 14:23:28;;;;;;;1.38;0.05;;;5.70;99.90;;;;;;5080141;28;20506;-80
2022/02/04 14:26:08;;;;;;;0.13;0.00;;;5.50;99.90;;;;;;5087046;28;20059;-79
2022/02/04 14:28:49;;;;;;;0.47;0.10;;;5.40;99.90;;;;;;5078761;28;20048;-79
2022/02/04 14:36:23;;;;;;;0.10;0.00;;;5.00;99.90;;;;;;5080149;28;20040;-80
2022/02/04 14:49:58;;;;;;;0.00;0.00;;;4.50;99.90;;;;;;5082412;28;20109;-80
2022/02/04 15:00:19;;;;;;;0.25;0.00;;;4.20;99.90;;;;;;5079974;28;20829;-79
2022/02/04 15:02:49;;;;;;;0.10;0.00;;;4.10;99.90;;;;;;5077235;28;20048;-79
2022/02/04 15:05:20;;;;;;;0.05;0.00;;;4.10;99.90;;;;;;5081647;28;20048;-79
2022/02/04 15:07:49;;;;;;;0.20;0.00;;;4.10;99.90;;;;;;5083539;28;20405;-79
2022/02/04 15:10:27;;;;;;;0.08;0.00;;;4.10;99.90;;;;;;5080235;28;20044;-79
2022/02/04 15:12:53;;;;;;;0.77;0.00;;;4.00;99.90;;;;;;5079673;28;20044;-78
2022/02/04 15:15:19;;;;;;;0.20;0.00;;;4.00;99.90;;;;;;5081114;28;20078;-77
2022/02/04 15:17:45;;;;;;;1.77;0.10;;;4.10;99.90;;;;;;5079102;28;20048;-79
2022/02/04 15:20:10;;;;;;;0.10;0.00;;;4.00;99.90;;;;;;5079930;28;20127;-78
2022/02/04 15:22:36;;;;;;;0.73;0.10;;;4.00;99.90;;;;;;5077763;28;20036;-78
2022/02/04 15:25:11;;;;;;;1.15;0.10;;;3.90;99.90;;;;;;5078932;28;20082;-78
2022/02/04 15:27:41;;;;;;;0.80;0.20;;;3.90;99.90;;;;;;5080832;28;20044;-78
2022/02/04 15:30:08;;;;;;;0.60;0.10;;;4.00;99.90;;;;;;5078553;28;20051;-78
2022/02/04 15:32:33;;;;;;;3.20;0.10;;;4.00;99.90;;;;;;5080853;28;20491;-78
2022/02/04 15:34:59;;;;;;;0.40;0.10;;;4.00;99.90;;;;;;5079754;28;20041;-78
2022/02/04 15:37:25;;;;;;;0.05;0.00;;;3.90;99.90;;;;;;5078851;28;20078;-78
2022/02/04 15:39:50;;;;;;;0.15;0.00;;;3.90;99.90;;;;;;5078245;28;20055;-77
2022/02/04 15:42:18;;;;;;;0.00;0.00;;;4.00;99.90;;;;;;5081977;28;20435;-78
2022/02/04 15:45:11;;;;;;;3.03;0.10;;;3.90;99.90;;;;;;5075734;28;20036;-79
2022/02/04 15:47:49;;;;;;;0.75;0.10;;;3.90;99.90;;;;;;5079625;28;20044;-78
2022/02/04 15:53:25;;;;;;;0.25;0.10;;;4.00;99.90;;;;;;5037882;28;20086;-78
2022/02/04 15:59:11;;;;;;;0.65;0.10;;;3.90;99.90;;;;;;5053153;28;20044;-78
2022/02/04 16:02:06;;;;;;;0.77;0.10;;;3.90;99.90;;;;;;5078473;28;20046;-78
2022/02/04 16:04:33;;;;;;;1.25;0.10;;;3.90;99.90;;;;;;5076411;28;20120;-77
2022/02/04 16:06:59;;;;;;;0.40;0.10;;;3.90;99.90;;;;;;5082223;28;20044;-78
2022/02/04 16:09:25;;;;;;;0.30;0.10;;;3.90;99.90;;;;;;5081297;28;20055;-79
2022/02/04 16:14:24;;;;;;;0.22;0.10;;;4.00;99.90;;;;;;5078095;28;20040;-79
2022/02/04 16:16:57;;;;;;;0.95;0.10;;;4.00;99.90;;;;;;5078520;28;20489;-78
2022/02/04 16:29:57;;;;;;;2.85;0.25;;;4.00;99.90;;;;;;5079497;28;20048;-80
2022/02/04 16:32:24;;;;;;;1.60;0.30;;;4.10;99.90;;;;;;5078526;28;20037;-80
2022/02/04 16:34:56;;;;;;;2.28;0.40;;;4.10;99.90;;;;;;5082671;28;20036;-80
2022/02/04 16:37:30;;;;;;;2.72;0.40;;;4.10;99.90;;;;;;5080548;28;20376;-79
2022/02/04 16:40:03;;;;;;;2.13;0.30;;;4.10;99.90;;;;;;5086678;28;20455;-80
2022/02/04 16:42:31;;;;;;;5.55;0.25;;;4.10;99.90;;;;;;5078433;28;20083;-80
2022/02/04 16:44:57;;;;;;;2.95;0.20;;;4.10;99.90;;;;;;5085827;28;20543;-80
2022/02/04 16:47:23;;;;;;;2.05;0.20;;;4.10;99.90;;;;;;5081529;28;20048;-80
2022/02/04 16:49:48;;;;;;;6.35;0.60;;;4.10;99.90;;;;;;5079506;28;20051;-80
2022/02/04 16:52:15;;;;;;;2.70;0.47;;;4.10;99.90;;;;;;5095287;28;20040;-79
2022/02/04 16:54:42;;;;;;;2.60;0.22;;;4.80;99.90;;;;;;5085057;28;20048;-78
2022/02/04 16:57:08;;;;;;;5.43;0.50;;;4.10;99.90;;;;;;5085190;28;20048;-78
2022/02/04 16:59:34;;;;;;;2.95;0.20;;;4.20;99.90;;;;;;5082448;28;20478;-78
2022/02/04 17:02:01;;;;;;;4.38;1.00;;;4.20;99.90;;;;;;5083894;28;20075;-78
2022/02/04 17:04:26;;;;;;;2.65;0.20;;;4.20;99.90;;;;;;5082560;28;20044;-78
2022/02/04 17:07:01;;;;;;;5.13;0.25;;;4.10;99.90;;;;;;5083361;28;20379;-78
2022/02/04 17:09:31;;;;;;;3.30;0.35;;;4.20;99.90;;;;;;5081777;28;20036;-79
2022/02/04 17:12:02;;;;;;;6.38;0.85;;;4.20;99.90;;;;;;5083052;28;20032;-78
2022/02/04 17:14:29;;;;;;;12.73;0.47;;;4.20;99.90;;;;;;5081817;28;20111;-78
2022/02/04 17:16:57;;;;;;;3.38;0.38;;;4.20;99.90;;;;;;5081111;28;20052;-78
2022/02/04 17:19:27;;;;;;;3.40;0.38;;;4.20;99.90;;;;;;5083025;28;20023;-79
2022/02/04 17:21:58;;;;;;;7.55;0.63;;;4.20;99.90;;;;;;5079675;28;20043;-79
2022/02/04 17:24:24;;;;;;;4.93;0.28;;;4.20;99.90;;;;;;5079361;28;20466;-79
2022/02/04 17:26:50;;;;;;;4.97;0.43;;;4.20;99.90;;;;;;5081884;28;20120;-78
2022/02/04 17:29:15;;;;;;;1.15;0.20;;;4.10;99.90;;;;;;5080123;28;20449;-79
2022/02/04 17:31:41;;;;;;;1.70;0.20;;;4.00;99.90;;;;;;5067425;28;20069;-79
2022/02/04 17:34:07;;;;;;;3.15;0.17;;;3.90;99.90;;;;;;5081605;28;20040;-78
2022/02/04 17:36:34;;;;;;;4.15;0.20;;;3.80;99.90;;;;;;5082969;28;20047;-79
2022/02/04 17:39:01;;;;;;;2.47;0.32;;;3.70;99.90;;;;;;5083656;28;20075;-79
2022/02/04 17:41:28;;;;;;;1.73;0.43;;;4.00;99.90;;;;;;5076833;28;20083;-79
2022/02/04 17:43:54;;;;;;;4.25;0.52;;;3.70;99.90;;;;;;5080837;28;20162;-79
2022/02/04 17:46:25;;;;;;;4.65;0.85;;;3.80;99.90;;;;;;5081875;28;20040;-79
2022/02/04 17:48:57;;;;;;;4.93;0.93;;;3.80;99.90;;;;;;5078141;28;20067;-79
2022/02/04 17:52:17;;;;;;;3.03;0.20;;;3.70;99.90;;;;;;5082798;28;20036;-79
2022/02/04 17:54:15;;;;;;;4.13;0.52;;;3.70;99.90;;;;;;5075126;28;20044;-79
2022/02/04 18:07:22;;;;;;;6.90;0.30;;;3.60;99.90;;;;;;5083324;28;20048;-79
2022/02/04 18:09:49;;;;;;;5.72;0.57;;;3.50;99.90;;;;;;5080275;28;20597;-79
2022/02/04 18:12:20;;;;;;;9.32;0.68;;;3.60;99.90;;;;;;5084113;28;20093;-79
2022/02/04 18:14:46;;;;;;;6.43;0.90;;;3.60;99.90;;;;;;5076452;28;20040;-79
2022/02/04 18:17:11;;;;;;;3.95;0.88;;;3.60;99.90;;;;;;5079565;28;20041;-79
2022/02/04 18:19:39;;;;;;;6.47;0.93;;;3.60;99.90;;;;;;5085867;28;20509;-79
2022/02/04 18:22:06;;;;;;;8.65;0.75;;;3.70;99.90;;;;;;5081111;28;21874;-79
2022/02/04 18:24:32;;;;;;;7.47;0.95;;;3.70;99.90;;;;;;5081576;28;20028;-79
2022/02/04 18:26:57;;;;;;;6.72;0.70;;;3.70;99.90;;;;;;5086213;28;20563;-79
2022/02/04 18:29:23;;;;;;;10.25;0.82;;;3.80;99.90;;;;;;5081987;28;20052;-79
2022/02/04 18:31:49;;;;;;;12.20;1.13;;;3.80;99.90;;;;;;5083107;28;20493;-79
2022/02/04 18:34:17;;;;;;;11.32;1.55;;;3.80;99.90;;;;;;5083220;28;20040;-79
2022/02/04 18:36:45;;;;;;;7.88;0.82;;;3.90;99.90;;;;;;5079140;28;20047;-78
2022/02/04 18:44:43;;;;;;;11.50;1.20;;;3.90;99.90;;;;;;5081220;28;20036;-78
2022/02/04 18:47:25;;;;;;;13.98;2.17;;;3.90;99.90;;;;;;5081653;28;20056;-78
2022/02/04 18:49:58;;;;;;;10.30;1.17;;;3.90;99.90;;;;;;5080056;28;20048;-78
2022/02/04 18:57:43;;;;;;;13.90;1.95;;;3.90;99.90;;;;;;5082467;28;20063;-78
2022/02/04 19:00:16;;;;;;;19.00;1.90;;;3.90;99.90;;;;;;5077552;28;20044;-79
2022/02/04 19:02:45;;;;;;;10.68;1.90;;;3.90;99.90;;;;;;5080567;28;20056;-79
2022/02/04 19:05:19;;;;;;;12.63;1.83;;;3.90;99.90;;;;;;5083544;28;20501;-79
2022/02/04 19:07:52;;;;;;;15.32;2.40;;;3.90;99.90;;;;;;5079202;28;20506;-79
2022/02/04 19:10:18;;;;;;;10.57;1.75;;;3.90;99.90;;;;;;5082456;28;20044;-79
2022/02/04 19:18:07;;;;;;;22.75;2.47;;;4.10;99.90;;;;;;5080009;28;20041;-79
2022/02/04 19:20:47;;;;;;;13.60;2.40;;;4.10;99.90;;;;;;5080709;28;20044;-79